Time;durP1;ratioP1;P1;durP2;ratioP2;P2;SDS_P1;SDS_P2;PMS_P1;PMS_P2;Temp;Humidity;BMP_temperature;BMP_pressure;BME280_temperature;BME280_humidity;BME280_pressure;Samples;Min_cycle;Max_cycle;Signal;HPM_P1;HPM_P2
2022/10/03 00:01:08;;;;;;;8.40;3.70;;;;;;;12.16;67.06;102495.75;5070325;28;20028;-58
2022/10/03 00:04:04;;;;;;;12.00;3.72;;;;;;;12.20;67.12;102503.41;5072117;28;20090;-58
2022/10/03 00:06:47;;;;;;;10.80;3.72;;;;;;;12.14;66.80;102498.72;5075259;28;20795;-59
2022/10/03 00:09:23;;;;;;;13.20;4.15;;;;;;;12.09;67.48;102494.91;5067539;28;20029;-58
2022/10/03 00:12:15;;;;;;;9.18;3.58;;;;;;;12.13;67.29;102497.03;5055222;28;20064;-58
2022/10/03 00:14:57;;;;;;;9.00;4.03;;;;;;;12.08;67.02;102487.66;5061020;28;20063;-58
2022/10/03 00:17:51;;;;;;;7.88;3.70;;;;;;;12.10;67.12;102496.63;5054275;28;20321;-59
2022/10/03 00:20:34;;;;;;;8.15;4.05;;;;;;;12.00;66.64;102491.56;5058055;28;20036;-58
2022/10/03 00:23:08;;;;;;;11.77;3.67;;;;;;;11.98;67.32;102494.53;5053958;28;20464;-58
2022/10/03 00:25:48;;;;;;;10.98;4.10;;;;;;;11.97;67.27;102503.97;5055535;28;20486;-59
2022/10/03 00:28:19;;;;;;;8.65;3.88;;;;;;;11.92;67.14;102498.22;5054876;28;20234;-59
2022/10/03 00:30:59;;;;;;;8.55;4.15;;;;;;;11.94;67.21;102504.41;5068567;28;20789;-59
2022/10/03 00:33:50;;;;;;;10.52;3.78;;;;;;;11.92;66.86;102508.50;5072756;28;20048;-59
2022/10/03 00:36:46;;;;;;;10.18;3.80;;;;;;;11.93;67.03;102510.22;5054085;28;20508;-59
2022/10/03 00:39:25;;;;;;;13.20;4.55;;;;;;;11.89;67.04;102503.38;5053562;28;20083;-59
2022/10/03 00:42:06;;;;;;;11.57;3.90;;;;;;;11.84;66.89;102520.75;5053773;28;20051;-59
2022/10/03 00:45:00;;;;;;;11.20;4.05;;;;;;;11.81;67.05;102526.72;5052782;28;20078;-59
2022/10/03 00:47:45;;;;;;;8.85;3.97;;;;;;;11.74;66.52;102510.03;5064506;28;20474;-59
2022/10/03 00:50:16;;;;;;;10.05;4.18;;;;;;;11.72;66.58;102522.47;5069780;28;20044;-60
2022/10/03 00:52:56;;;;;;;11.73;4.53;;;;;;;11.72;66.63;102525.25;5053858;28;20056;-59
2022/10/03 00:55:45;;;;;;;13.82;4.18;;;;;;;11.70;66.61;102527.41;5062868;28;20472;-59
2022/10/03 00:58:14;;;;;;;9.05;3.70;;;;;;;11.64;66.53;102525.50;5068881;28;20473;-59
2022/10/03 01:00:44;;;;;;;11.23;4.45;;;;;;;11.59;66.59;102528.91;5063929;28;20036;-59
2022/10/03 01:03:38;;;;;;;12.60;4.10;;;;;;;11.67;67.20;102531.50;5072134;28;20021;-59
2022/10/03 01:06:16;;;;;;;12.93;4.85;;;;;;;11.63;66.90;102538.56;5054812;28;20041;-59
2022/10/03 01:08:57;;;;;;;10.90;4.28;;;;;;;11.60;67.57;102532.59;5053769;28;20043;-59
2022/10/03 01:11:47;;;;;;;9.07;4.00;;;;;;;11.67;67.14;102542.63;5067127;28;20017;-59
2022/10/03 01:14:43;;;;;;;12.98;4.57;;;;;;;11.67;67.49;102550.09;5053908;28;20067;-58
2022/10/03 01:17:27;;;;;;;9.48;4.35;;;;;;;11.65;67.42;102553.09;5053685;28;20028;-59
2022/10/03 01:20:17;;;;;;;7.45;3.83;;;;;;;11.61;67.63;102559.31;5053336;28;20037;-60
2022/10/03 01:22:45;;;;;;;7.88;4.10;;;;;;;11.59;67.70;102558.66;5056096;28;20052;-58
2022/10/03 01:25:25;;;;;;;9.23;4.60;;;;;;;11.57;67.39;102558.91;5053347;28;20063;-58
2022/10/03 01:31:01;;;;;;;11.60;4.55;;;;;;;11.55;67.58;102561.91;5071120;28;20575;-58
2022/10/03 01:33:32;;;;;;;10.48;4.38;;;;;;;11.53;67.59;102561.25;5070653;28;20050;-58
2022/10/03 01:35:57;;;;;;;11.32;3.90;;;;;;;11.51;67.61;102554.19;5072915;28;20407;-58
2022/10/03 01:38:38;;;;;;;10.10;4.25;;;;;;;11.47;67.75;102548.22;5072203;28;20032;-58
2022/10/03 01:41:40;;;;;;;10.07;4.13;;;;;;;11.55;67.99;102553.56;5064588;28;20079;-58
2022/10/03 01:44:23;;;;;;;8.43;4.30;;;;;;;11.52;68.00;102559.56;5070693;28;20121;-59
2022/10/03 01:47:04;;;;;;;9.77;4.32;;;;;;;11.48;68.03;102557.44;5067919;28;20029;-59
2022/10/03 01:49:47;;;;;;;14.25;4.10;;;;;;;11.51;67.97;102566.19;5052460;28;20033;-58
2022/10/03 01:52:40;;;;;;;9.45;4.03;;;;;;;11.50;67.74;102564.47;5052970;28;20052;-58
2022/10/03 01:55:28;;;;;;;9.85;4.30;;;;;;;11.48;67.56;102566.63;5055281;28;20024;-58
2022/10/03 01:58:16;;;;;;;10.23;3.78;;;;;;;11.42;68.16;102555.50;5069552;28;20037;-58
2022/10/03 02:00:52;;;;;;;10.55;4.30;;;;;;;11.39;68.06;102554.00;5070409;28;20055;-59
2022/10/03 02:03:27;;;;;;;10.45;4.47;;;;;;;11.43;68.08;102558.06;5052569;28;20071;-59
2022/10/03 02:06:16;;;;;;;9.45;4.13;;;;;;;11.40;68.45;102555.75;5052471;28;20473;-59
2022/10/03 02:08:54;;;;;;;10.48;4.10;;;;;;;11.38;68.09;102559.78;5071752;28;20380;-59
2022/10/03 02:11:37;;;;;;;8.88;4.40;;;;;;;11.35;67.92;102561.06;5058658;28;20043;-59
2022/10/03 02:14:08;;;;;;;9.40;4.22;;;;;;;11.34;68.22;102562.16;5072952;28;20027;-59
2022/10/03 02:16:53;;;;;;;9.10;4.03;;;;;;;11.35;68.20;102568.56;5071724;28;20024;-59
2022/10/03 02:19:31;;;;;;;9.82;3.97;;;;;;;11.38;68.23;102566.22;5062999;28;20040;-59
2022/10/03 02:21:59;;;;;;;8.20;3.95;;;;;;;11.32;68.15;102569.88;5059071;28;20573;-59
2022/10/03 02:24:32;;;;;;;11.50;4.32;;;;;;;11.28;68.32;102568.59;5052236;28;20025;-59
2022/10/03 02:27:19;;;;;;;10.00;4.28;;;;;;;11.33;68.26;102563.22;5052096;28;20037;-59
2022/10/03 02:29:50;;;;;;;9.60;4.43;;;;;;;11.26;68.46;102567.94;5065794;28;20038;-59
2022/10/03 02:32:44;;;;;;;10.38;4.40;;;;;;;11.26;68.38;102567.94;5064720;28;20047;-59
2022/10/03 02:35:49;;;;;;;9.85;4.03;;;;;;;11.27;68.07;102559.38;5052127;28;20029;-59
2022/10/03 02:38:24;;;;;;;10.00;4.15;;;;;;;11.21;67.98;102574.16;5051998;28;20128;-58
2022/10/03 02:41:07;;;;;;;10.60;4.40;;;;;;;11.23;68.18;102574.78;5051946;28;20032;-58
2022/10/03 02:44:06;;;;;;;8.65;4.80;;;;;;;11.24;68.16;102575.66;5053518;28;20033;-58
2022/10/03 02:47:09;;;;;;;8.07;4.28;;;;;;;11.22;67.99;102567.50;5070830;28;20028;-59
2022/10/03 02:50:12;;;;;;;7.82;3.85;;;;;;;11.25;67.86;102566.25;5068313;28;20091;-59
2022/10/03 02:52:37;;;;;;;;;;;;;;;11.38;67.67;102565.34;5059477;28;20037;-59
2022/10/03 02:55:26;;;;;;;12.45;4.72;;;;;;;11.18;67.99;102557.03;5056898;28;19989;-58
2022/10/03 02:58:29;;;;;;;8.38;4.45;;;;;;;11.16;68.05;102562.84;5051588;28;20053;-58
2022/10/03 03:01:39;;;;;;;8.60;4.63;;;;;;;11.09;67.89;102561.97;5057918;28;20025;-58
2022/10/03 03:04:41;;;;;;;12.57;4.80;;;;;;;11.11;67.86;102561.75;5049607;28;20044;-59
2022/10/03 03:07:31;;;;;;;9.82;4.32;;;;;;;11.08;68.00;102565.81;5049859;28;20480;-58
2022/10/03 03:10:12;;;;;;;9.63;4.43;;;;;;;11.00;67.87;102558.56;5058439;28;20036;-58
2022/10/03 03:12:54;;;;;;;9.80;4.65;;;;;;;10.94;68.00;102561.34;5070793;28;20131;-58
2022/10/03 03:15:35;;;;;;;14.13;4.53;;;;;;;10.95;67.75;102566.66;5074927;28;20021;-58
2022/10/03 03:18:19;;;;;;;12.77;4.30;;;;;;;10.91;67.69;102565.38;5055584;28;20651;-58
2022/10/03 03:20:54;;;;;;;9.07;4.18;;;;;;;10.90;67.93;102566.47;5075296;28;20246;-58
2022/10/03 03:23:22;;;;;;;10.10;4.15;;;;;;;10.84;68.22;102572.00;5062828;28;20029;-58
2022/10/03 03:26:06;;;;;;;11.73;4.65;;;;;;;10.86;68.06;102581.84;5054562;28;20039;-58
2022/10/03 03:28:51;;;;;;;8.13;4.13;;;;;;;10.81;67.83;102576.09;5056141;28;20468;-58
2022/10/03 03:31:31;;;;;;;7.18;4.40;;;;;;;10.80;68.02;102577.13;5055830;28;20108;-59
2022/10/03 03:34:21;;;;;;;12.15;4.32;;;;;;;10.87;68.09;102572.44;5055035;28;20116;-59
2022/10/03 03:36:58;;;;;;;9.77;4.65;;;;;;;10.80;67.86;102577.97;5062104;28;20025;-59
2022/10/03 03:39:41;;;;;;;9.05;4.07;;;;;;;10.77;67.92;102575.66;5074197;28;20119;-59
2022/10/03 03:42:24;;;;;;;7.07;4.47;;;;;;;10.73;67.57;102585.47;5074559;28;20129;-58
2022/10/03 03:45:03;;;;;;;7.47;4.43;;;;;;;10.75;67.79;102580.56;5071523;28;20086;-59
2022/10/03 03:47:34;;;;;;;8.38;4.25;;;;;;;10.72;67.63;102580.13;5058716;28;20048;-58
2022/10/03 03:50:14;;;;;;;7.80;4.10;;;;;;;10.73;67.81;102579.06;5065937;28;20037;-59
2022/10/03 03:53:08;;;;;;;9.25;4.47;;;;;;;10.69;67.60;102583.31;5070226;28;20036;-59
2022/10/03 03:56:09;;;;;;;8.02;4.70;;;;;;;10.72;67.86;102582.91;5065785;28;20505;-59
2022/10/03 03:58:50;;;;;;;9.55;4.70;;;;;;;10.63;67.68;102589.72;5074234;28;20430;-59
2022/10/03 04:01:52;;;;;;;8.85;4.68;;;;;;;10.69;67.85;102583.31;5057804;28;20036;-59
2022/10/03 04:04:36;;;;;;;7.57;4.50;;;;;;;10.68;68.07;102582.47;5055481;28;20387;-59
2022/10/03 04:07:14;;;;;;;10.73;4.68;;;;;;;10.62;67.83;102580.56;5054801;28;20423;-58
2022/10/03 04:09:44;;;;;;;9.98;4.82;;;;;;;10.60;67.91;102587.38;5065923;28;20037;-58
2022/10/03 04:12:57;;;;;;;10.70;4.97;;;;;;;10.65;68.05;102594.03;5071263;28;20036;-59
2022/10/03 04:15:33;;;;;;;8.32;5.40;;;;;;;10.57;68.06;102595.06;5068714;28;20849;-59
2022/10/03 04:21:03;;;;;;;10.90;4.82;;;;;;;10.54;68.00;102589.94;5054149;28;20089;-60
2022/10/03 04:23:37;;;;;;;10.05;5.20;;;;;;;10.53;68.38;102601.22;5054226;28;20025;-58
2022/10/03 04:26:29;;;;;;;10.00;4.80;;;;;;;10.52;68.55;102597.59;5055031;28;20025;-58
2022/10/03 04:29:10;;;;;;;11.90;4.88;;;;;;;10.53;68.12;102591.00;5055275;28;20037;-59
2022/10/03 04:32:10;;;;;;;7.72;5.00;;;;;;;10.56;68.40;102590.56;5062467;28;20076;-59
2022/10/03 04:34:56;;;;;;;10.52;4.70;;;;;;;10.52;68.37;102594.81;5057169;28;20044;-59
2022/10/03 04:37:40;;;;;;;9.23;4.80;;;;;;;10.51;68.32;102598.69;5072619;28;20028;-59
2022/10/03 04:40:27;;;;;;;7.30;4.85;;;;;;;10.52;68.61;102597.59;5054411;28;20395;-59
2022/10/03 04:43:03;;;;;;;8.05;4.68;;;;;;;10.45;68.59;102593.09;5054160;28;20025;-59
2022/10/03 04:45:59;;;;;;;8.70;4.63;;;;;;;10.52;68.24;102597.59;5057411;28;20078;-59
2022/10/03 04:48:40;;;;;;;7.75;4.32;;;;;;;10.48;68.44;102593.53;5055916;28;20443;-59
2022/10/03 04:51:25;;;;;;;7.13;4.68;;;;;;;10.44;68.62;102594.16;5067268;28;20494;-59
2022/10/03 04:54:03;;;;;;;12.50;5.38;;;;;;;10.45;68.73;102588.44;5071179;28;20078;-59
2022/10/03 04:56:47;;;;;;;6.28;4.70;;;;;;;10.47;68.78;102597.38;5053724;28;20393;-59
2022/10/03 04:59:24;;;;;;;10.15;5.07;;;;;;;10.43;68.79;102598.03;5061281;28;20079;-59
2022/10/03 05:02:00;;;;;;;7.07;4.90;;;;;;;10.41;69.22;102592.66;5064437;28;20021;-59
2022/10/03 05:04:44;;;;;;;12.20;5.00;;;;;;;10.45;69.05;102595.88;5058780;28;20021;-59
2022/10/03 05:07:19;;;;;;;9.20;4.63;;;;;;;10.41;69.56;102603.75;5065437;28;20028;-59
2022/10/03 05:09:52;;;;;;;13.30;4.70;;;;;;;10.37;69.05;102604.41;5058766;28;20033;-59
2022/10/03 05:12:43;;;;;;;8.10;5.28;;;;;;;10.36;69.07;102600.78;5055022;28;20029;-59
2022/10/03 05:15:15;;;;;;;8.07;4.30;;;;;;;10.37;69.06;102601.63;5053818;28;20025;-59
2022/10/03 05:17:48;;;;;;;8.25;4.93;;;;;;;10.36;68.67;102608.25;5070786;28;20040;-59
2022/10/03 05:20:35;;;;;;;6.10;4.60;;;;;;;10.37;68.71;102608.03;5053747;28;20078;-59
2022/10/03 05:23:12;;;;;;;7.30;4.40;;;;;;;10.37;69.04;102613.56;5053201;28;20024;-59
2022/10/03 05:25:56;;;;;;;13.45;5.32;;;;;;;10.32;68.94;102613.34;5052816;28;20111;-58
2022/10/03 05:28:53;;;;;;;7.18;4.47;;;;;;;10.37;69.26;102612.72;5053328;28;20052;-59
2022/10/03 05:31:39;;;;;;;7.75;4.97;;;;;;;10.32;68.88;102622.53;5054948;28;20032;-59
2022/10/03 05:34:32;;;;;;;9.93;4.75;;;;;;;10.30;69.05;102619.13;5064182;28;20021;-59
2022/10/03 05:37:19;;;;;;;11.40;5.20;;;;;;;10.26;68.84;102626.16;5060399;28;20033;-58
2022/10/03 05:39:55;;;;;;;14.85;6.85;;;;;;;10.26;69.14;102634.50;5057713;28;20040;-59
2022/10/03 05:42:51;;;;;;;9.85;5.60;;;;;;;10.34;69.04;102635.38;5056538;28;20025;-59
2022/10/03 05:45:35;;;;;;;10.00;4.57;;;;;;;10.31;68.92;102633.84;5071307;28;20036;-59
2022/10/03 05:48:25;;;;;;;11.32;5.43;;;;;;;10.32;69.25;102632.78;5072434;28;20107;-59
2022/10/03 05:51:38;;;;;;;10.10;4.88;;;;;;;10.32;69.23;102639.19;5055518;28;20028;-59
2022/10/03 05:54:15;;;;;;;9.25;5.38;;;;;;;10.28;69.58;102637.91;5052684;28;20037;-59
2022/10/03 05:57:04;;;;;;;10.48;5.50;;;;;;;10.28;69.46;102634.25;5062283;28;20096;-59
2022/10/03 06:00:05;;;;;;;10.80;5.63;;;;;;;10.36;69.29;102636.00;5067681;28;20041;-59
2022/10/03 06:02:53;;;;;;;10.27;5.22;;;;;;;10.29;69.79;102634.03;5070135;28;20123;-59
2022/10/03 06:05:18;;;;;;;10.13;5.15;;;;;;;10.28;69.91;102649.00;5057803;28;20051;-59
2022/10/03 06:08:09;;;;;;;10.20;5.63;;;;;;;10.31;70.24;102647.72;5065301;28;20114;-59
2022/10/03 06:10:42;;;;;;;7.10;4.95;;;;;;;10.32;70.81;102655.84;5065352;28;20055;-61
2022/10/03 06:13:50;;;;;;;14.50;5.57;;;;;;;10.43;70.50;102656.31;5070023;28;20042;-59
2022/10/03 06:16:31;;;;;;;7.65;5.30;;;;;;;10.37;71.28;102649.66;5048320;28;20094;-59
2022/10/03 06:19:17;;;;;;;10.63;4.95;;;;;;;10.42;71.21;102658.25;5052187;28;20349;-59
2022/10/03 06:22:09;;;;;;;10.13;5.32;;;;;;;10.46;71.56;102661.47;5051576;28;20039;-59
2022/10/03 06:25:02;;;;;;;16.15;5.95;;;;;;;10.50;71.47;102663.59;5063162;28;20059;-60
2022/10/03 06:28:21;;;;;;;10.38;5.63;;;;;;;10.53;71.70;102657.66;5059691;28;20045;-59
2022/10/03 06:30:57;;;;;;;10.10;5.47;;;;;;;10.55;71.73;102655.50;5007507;28;20077;-60
2022/10/03 06:34:00;;;;;;;11.93;5.80;;;;;;;10.56;71.77;102657.19;5041522;28;20037;-59
2022/10/03 06:37:02;;;;;;;7.95;5.15;;;;;;;10.59;71.65;102671.75;5053922;28;20037;-59
2022/10/03 06:39:46;;;;;;;12.77;5.57;;;;;;;10.53;71.72;102665.97;5065106;28;20033;-60
2022/10/03 06:42:56;;;;;;;10.20;6.20;;;;;;;10.59;71.79;102667.03;5068965;28;20040;-59
2022/10/03 06:45:27;;;;;;;12.68;5.90;;;;;;;10.53;72.02;102663.19;5055541;28;20039;-60
2022/10/03 06:48:20;;;;;;;13.82;6.03;;;;;;;10.56;72.15;102659.97;5051248;28;20077;-60
2022/10/03 06:50:58;;;;;;;15.90;6.28;;;;;;;10.56;72.50;102667.47;5066846;28;20029;-60
2022/10/03 06:53:54;;;;;;;14.18;6.00;;;;;;;10.57;72.55;102663.59;5061211;28;20492;-60
2022/10/03 06:56:45;;;;;;;13.48;6.38;;;;;;;10.64;72.54;102663.63;5041127;28;20128;-60
2022/10/03 06:59:31;;;;;;;9.90;6.35;;;;;;;10.63;72.97;102656.38;5063713;28;20529;-60
2022/10/03 07:02:25;;;;;;;11.93;5.97;;;;;;;10.72;72.43;102667.06;5059248;28;20029;-60
2022/10/03 07:05:18;;;;;;;13.73;6.35;;;;;;;10.72;72.94;102671.78;5050092;28;20052;-59
2022/10/03 07:08:20;;;;;;;16.65;5.90;;;;;;;10.73;72.99;102677.13;5050368;28;20434;-59
2022/10/03 07:11:20;;;;;;;10.38;6.03;;;;;;;10.79;72.90;102680.97;5057982;28;20124;-59
2022/10/03 07:14:23;;;;;;;11.65;5.88;;;;;;;10.79;73.27;102670.72;5050683;28;20063;-60
2022/10/03 07:17:10;;;;;;;15.65;6.47;;;;;;;10.83;73.49;102668.38;5056814;28;20040;-59
2022/10/03 07:19:54;;;;;;;9.45;5.68;;;;;;;10.86;73.87;102669.91;5057026;28;20043;-59
2022/10/03 07:23:05;;;;;;;10.40;6.28;;;;;;;10.95;73.37;102666.69;5054338;28;20170;-58
2022/10/03 07:25:39;;;;;;;10.50;6.60;;;;;;;11.00;73.87;102675.28;5055867;28;20036;-57
2022/10/03 07:28:26;;;;;;;9.48;5.80;;;;;;;11.04;73.85;102679.34;5061203;28;20403;-58
2022/10/03 07:31:13;;;;;;;12.00;5.93;;;;;;;11.13;73.72;102690.25;5059400;28;20051;-57
2022/10/03 07:33:56;;;;;;;9.82;6.40;;;;;;;11.18;73.69;102688.53;5065101;28;20531;-57
2022/10/03 07:39:42;;;;;;;13.00;6.60;;;;;;;11.34;74.09;102695.59;5060144;28;20109;-59
2022/10/03 07:42:15;;;;;;;12.27;6.95;;;;;;;11.45;73.72;102689.41;5049286;28;20423;-59
2022/10/03 07:45:15;;;;;;;12.80;6.55;;;;;;;11.58;73.35;102691.31;5049889;28;20498;-58
2022/10/03 07:48:18;;;;;;;10.10;6.38;;;;;;;11.73;73.77;102694.72;5049510;28;20107;-58
2022/10/03 07:51:02;;;;;;;13.40;6.25;;;;;;;11.84;74.08;102701.59;5066789;28;20111;-58
2022/10/03 07:53:46;;;;;;;13.43;7.35;;;;;;;12.00;74.03;102706.69;5067550;28;20097;-58
2022/10/03 07:56:47;;;;;;;16.08;6.50;;;;;;;12.12;73.37;102700.47;5073550;28;20476;-58
2022/10/03 07:59:46;;;;;;;13.50;6.78;;;;;;;12.28;74.01;102709.19;5072454;28;20036;-58
2022/10/03 08:02:35;;;;;;;13.70;6.55;;;;;;;12.42;74.46;102707.22;5072493;28;20078;-58
2022/10/03 08:05:14;;;;;;;11.23;6.00;;;;;;;12.55;73.93;102709.09;5073612;28;20024;-58
2022/10/03 08:08:02;;;;;;;12.15;6.55;;;;;;;12.67;73.77;102709.25;5070064;28;20767;-59
2022/10/03 08:11:06;;;;;;;9.93;6.88;;;;;;;12.78;73.26;102714.13;5053097;28;20036;-59
2022/10/03 08:14:15;;;;;;;10.93;5.95;;;;;;;12.85;73.28;102706.59;5033846;28;20037;-58
2022/10/03 08:17:24;;;;;;;11.52;6.28;;;;;;;12.95;73.62;102712.50;5051048;28;20143;-59
2022/10/03 08:19:59;;;;;;;11.70;6.18;;;;;;;13.08;73.42;102705.97;5053420;28;20469;-59
2022/10/03 08:22:52;;;;;;;15.05;6.10;;;;;;;13.21;73.35;102705.06;5051052;28;20397;-59
2022/10/03 08:25:28;;;;;;;10.32;5.78;;;;;;;13.36;73.10;102707.53;5056717;28;20032;-59
2022/10/03 08:28:22;;;;;;;10.05;5.05;;;;;;;13.61;73.33;102708.41;5062332;28;20178;-59
2022/10/03 08:31:24;;;;;;;9.43;4.65;;;;;;;13.85;72.80;102708.63;5055689;28;20025;-59
2022/10/03 08:34:26;;;;;;;10.93;4.85;;;;;;;14.12;72.54;102703.59;5052443;28;20063;-59
2022/10/03 08:37:32;;;;;;;9.88;4.68;;;;;;;14.33;72.24;102714.31;5061366;28;20111;-61
2022/10/03 08:40:17;;;;;;;10.30;5.18;;;;;;;14.42;71.21;102715.72;5066475;28;20036;-58
2022/10/03 08:43:04;;;;;;;11.63;4.72;;;;;;;14.60;71.35;102719.59;5059617;28;20086;-60
2022/10/03 08:45:49;;;;;;;18.88;5.78;;;;;;;14.67;70.37;102715.63;5053643;28;20051;-60
2022/10/03 08:48:21;;;;;;;11.20;5.38;;;;;;;14.73;70.49;102714.69;5053896;28;20043;-59
2022/10/03 08:51:01;;;;;;;10.23;5.43;;;;;;;14.75;70.26;102714.47;5052113;28;20105;-60
2022/10/03 08:54:01;;;;;;;14.15;5.40;;;;;;;14.84;70.27;102715.84;5052602;28;20028;-59
2022/10/03 08:56:40;;;;;;;10.93;5.30;;;;;;;14.95;70.01;102716.97;5051941;28;20709;-59
2022/10/03 08:59:12;;;;;;;15.30;5.18;;;;;;;15.05;69.69;102727.56;5051345;28;20550;-59
2022/10/03 09:02:13;;;;;;;8.95;4.68;;;;;;;15.11;69.88;102716.31;5058743;28;20084;-60
2022/10/03 09:05:02;;;;;;;13.70;4.97;;;;;;;15.13;69.80;102710.47;5064999;28;20473;-60
2022/10/03 09:07:45;;;;;;;10.38;4.93;;;;;;;15.23;70.05;102713.53;5045604;28;20055;-60
2022/10/03 09:10:31;;;;;;;9.80;5.05;;;;;;;15.31;69.56;102710.41;5054368;28;20025;-59
2022/10/03 09:13:20;;;;;;;10.95;5.13;;;;;;;15.42;69.96;102717.97;5053643;28;20087;-59
2022/10/03 09:16:04;;;;;;;6.03;2.83;;;;;;;15.79;69.50;102722.53;5055159;28;20105;-60
2022/10/03 09:18:45;;;;;;;8.68;2.83;;;;;;;16.27;67.86;102721.41;5065391;28;20119;-62
2022/10/03 09:21:33;;;;;;;8.90;3.05;;;;;;;16.56;67.10;102711.13;5060732;28;21872;-62
2022/10/03 09:24:04;;;;;;;8.38;2.88;;;;;;;16.76;66.11;102714.38;5066521;28;20044;-62
2022/10/03 09:26:48;;;;;;;7.80;3.25;;;;;;;16.84;65.10;102714.00;5071311;28;20038;-62
2022/10/03 09:29:20;;;;;;;10.20;3.90;;;;;;;16.86;65.16;102713.75;5071901;28;20468;-63
2022/10/03 09:32:14;;;;;;;7.47;2.88;;;;;;;16.94;66.07;102713.34;5071443;28;20135;-61
2022/10/03 09:35:27;;;;;;;9.70;2.80;;;;;;;17.11;65.24;102707.78;5057691;28;20039;-61
2022/10/03 09:38:32;;;;;;;12.23;3.22;;;;;;;17.20;65.10;102695.03;5045283;28;20051;-61
2022/10/03 09:41:27;;;;;;;7.53;2.30;;;;;;;17.15;64.49;102690.19;5061816;28;20038;-61
2022/10/03 09:44:30;;;;;;;9.23;2.63;;;;;;;17.08;63.98;102692.28;5061303;28;20036;-61
2022/10/03 09:47:29;;;;;;;5.80;2.10;;;;;;;16.92;63.70;102691.16;5057601;28;20047;-61
2022/10/03 09:50:20;;;;;;;6.05;2.08;;;;;;;16.89;63.95;102694.44;5067203;28;20033;-61
2022/10/03 09:53:19;;;;;;;8.95;2.38;;;;;;;16.83;63.62;102689.84;5051049;28;20029;-61
2022/10/03 09:56:03;;;;;;;8.93;2.25;;;;;;;16.71;63.72;102685.38;5053076;28;20440;-61
2022/10/03 09:58:54;;;;;;;8.20;2.20;;;;;;;16.78;63.48;102684.16;5051342;28;20473;-61
2022/10/03 10:02:02;;;;;;;8.63;2.33;;;;;;;16.85;63.68;102687.63;5050961;28;20116;-62
2022/10/03 10:04:33;;;;;;;7.95;2.13;;;;;;;16.97;63.30;102684.78;5048037;28;20045;-61
2022/10/03 10:07:32;;;;;;;6.90;2.28;;;;;;;17.08;63.16;102674.59;5065291;28;20077;-62
2022/10/03 10:10:35;;;;;;;5.35;2.13;;;;;;;17.08;63.10;102675.44;5065914;28;20040;-61
2022/10/03 10:13:15;;;;;;;6.82;2.00;;;;;;;17.10;62.14;102678.03;5071283;28;20075;-61
2022/10/03 10:15:46;;;;;;;5.25;2.13;;;;;;;17.06;61.65;102665.59;5058226;28;20437;-62
2022/10/03 10:18:49;;;;;;;8.88;2.30;;;;;;;17.17;62.68;102675.88;5051805;28;20104;-61
2022/10/03 10:21:32;;;;;;;9.27;2.20;;;;;;;17.30;61.66;102674.72;5049999;28;20041;-62
2022/10/03 10:24:31;;;;;;;8.20;1.85;;;;;;;17.20;61.98;102681.00;5062953;28;20116;-62
2022/10/03 10:27:27;;;;;;;7.47;2.50;;;;;;;17.18;61.65;102684.06;5050917;28;20036;-60
2022/10/03 10:30:13;;;;;;;4.85;1.90;;;;;;;17.42;60.50;102679.16;5064508;28;20107;-61
2022/10/03 10:33:27;;;;;;;7.50;1.85;;;;;;;17.57;61.38;102677.72;5055475;28;20116;-59
2022/10/03 10:36:22;;;;;;;9.85;2.15;;;;;;;17.65;60.17;102664.09;5057988;28;20064;-58
2022/10/03 10:38:59;;;;;;;8.80;1.67;;;;;;;17.77;59.56;102665.97;5053625;28;21948;-59
2022/10/03 10:41:55;;;;;;;8.20;1.40;;;;;;;17.86;59.73;102667.22;5075719;28;20048;-59
2022/10/03 10:44:32;;;;;;;5.25;1.73;;;;;;;17.90;59.31;102674.03;5066716;28;20107;-59
2022/10/03 10:47:10;;;;;;;5.07;1.77;;;;;;;17.95;59.01;102670.44;5052384;28;20040;-59
2022/10/03 10:49:56;;;;;;;6.40;1.90;;;;;;;18.00;59.33;102684.56;5059042;28;20480;-59
2022/10/03 10:52:48;;;;;;;6.68;2.20;;;;;;;17.89;59.12;102678.81;5062587;28;20037;-60
2022/10/03 10:55:36;;;;;;;5.72;2.00;;;;;;;17.96;59.67;102680.56;5055838;28;20027;-60
2022/10/03 10:58:22;;;;;;;9.43;1.77;;;;;;;17.98;59.28;102682.00;5051720;28;20589;-61
2022/10/03 11:01:32;;;;;;;6.38;1.50;;;;;;;18.03;59.61;102673.66;5052292;28;20471;-59
2022/10/03 11:04:31;;;;;;;7.65;1.83;;;;;;;17.97;59.59;102679.47;5059924;28;20043;-60
2022/10/03 11:07:39;;;;;;;5.82;2.20;;;;;;;17.97;59.62;102683.13;5052885;28;20154;-61
2022/10/03 11:10:26;;;;;;;5.55;1.58;;;;;;;18.00;59.29;102676.13;5049451;28;20033;-61
2022/10/03 11:13:32;;;;;;;10.63;2.20;;;;;;;18.09;59.37;102680.22;5055039;28;20118;-60
2022/10/03 11:16:33;;;;;;;6.32;1.30;;;;;;;18.20;58.05;102675.59;5053414;28;20029;-61
2022/10/03 11:19:43;;;;;;;6.53;1.92;;;;;;;18.18;58.54;102670.22;5051715;28;20064;-59
2022/10/03 11:22:46;;;;;;;5.78;1.50;;;;;;;18.13;57.88;102658.91;5059114;28;20028;-60
2022/10/03 11:25:36;;;;;;;7.55;1.60;;;;;;;18.17;57.75;102657.28;5059060;28;20124;-60
2022/10/03 11:28:25;;;;;;;9.20;1.80;;;;;;;18.09;57.51;102660.53;5052440;28;20079;-59
2022/10/03 11:31:24;;;;;;;6.93;1.88;;;;;;;18.13;57.59;102659.75;5069094;28;20028;-59
2022/10/03 11:34:27;;;;;;;5.72;1.45;;;;;;;18.10;56.94;102657.47;5055967;28;20047;-59
2022/10/03 11:37:05;;;;;;;7.53;1.48;;;;;;;18.13;56.16;102656.09;5059954;28;20116;-60
2022/10/03 11:39:48;;;;;;;5.85;1.65;;;;;;;18.14;57.13;102649.34;5057109;28;20124;-59
2022/10/03 11:42:54;;;;;;;4.10;1.60;;;;;;;18.16;56.87;102658.41;5068250;28;20116;-59
2022/10/03 11:45:26;;;;;;;4.05;1.50;;;;;;;18.18;53.91;102656.16;5057201;28;20037;-59
2022/10/03 11:48:11;;;;;;;3.45;1.08;;;;;;;18.22;55.88;102657.34;5063512;28;20497;-58
2022/10/03 11:50:53;;;;;;;5.85;1.60;;;;;;;18.12;54.73;102652.44;5055706;28;20051;-58
2022/10/03 11:53:44;;;;;;;7.97;1.70;;;;;;;18.10;56.07;102662.22;5073145;28;20357;-58
2022/10/03 11:56:21;;;;;;;5.47;1.50;;;;;;;18.11;55.91;102658.31;5064230;28;20029;-57
2022/10/03 11:58:59;;;;;;;8.48;1.80;;;;;;;18.07;55.67;102659.94;5066591;28;20043;-58
2022/10/03 12:01:42;;;;;;;7.47;1.60;;;;;;;18.20;55.93;102653.09;5062885;28;20468;-58
2022/10/03 12:04:27;;;;;;;9.05;2.25;;;;;;;18.09;55.85;102650.16;5065791;28;20048;-58
2022/10/03 12:10:13;;;;;;;6.57;1.60;;;;;;;18.00;55.79;102648.03;5077908;28;20086;-61
2022/10/03 12:12:43;;;;;;;8.18;1.67;;;;;;;18.02;56.06;102652.28;5065485;28;20552;-58
2022/10/03 12:15:18;;;;;;;5.40;1.40;;;;;;;18.07;55.80;102657.13;5051985;28;20036;-58
2022/10/03 12:17:59;;;;;;;5.65;1.52;;;;;;;18.13;55.86;102650.47;5062197;28;20044;-58
2022/10/03 12:20:36;;;;;;;6.78;1.70;;;;;;;18.18;55.23;102646.88;5068867;28;20086;-58
2022/10/03 12:23:27;;;;;;;8.55;1.70;;;;;;;18.20;55.77;102642.72;5068597;28;20039;-58
2022/10/03 12:25:55;;;;;;;6.18;1.60;;;;;;;18.16;54.14;102641.53;5061223;28;20043;-58
2022/10/03 12:28:26;;;;;;;7.15;1.73;;;;;;;18.06;53.42;102635.75;5064545;28;20020;-58
2022/10/03 12:30:56;;;;;;;9.88;1.90;;;;;;;18.00;54.37;102634.84;5072992;28;20119;-58
2022/10/03 12:33:44;;;;;;;10.80;1.60;;;;;;;17.95;54.63;102634.75;5069688;28;20044;-58
2022/10/03 12:36:47;;;;;;;5.82;1.40;;;;;;;17.99;55.62;102629.47;5056752;28;20036;-58
2022/10/03 12:39:32;;;;;;;5.95;1.83;;;;;;;17.99;55.58;102632.28;5055398;28;20047;-58
2022/10/03 12:42:16;;;;;;;7.78;1.70;;;;;;;17.94;56.65;102633.06;5063019;28;20093;-60
2022/10/03 12:44:55;;;;;;;6.07;1.67;;;;;;;17.94;55.45;102627.44;5056716;28;20036;-60
2022/10/03 12:47:59;;;;;;;9.57;2.05;;;;;;;17.94;56.62;102623.81;5056130;28;20025;-59
2022/10/03 12:50:44;;;;;;;10.93;2.03;;;;;;;17.94;56.31;102621.84;5055913;28;20040;-59
2022/10/03 12:53:15;;;;;;;6.38;1.58;;;;;;;17.95;55.96;102622.69;5053372;28;20142;-59
2022/10/03 12:55:56;;;;;;;6.30;1.70;;;;;;;17.94;56.10;102629.41;5067517;28;20036;-59
2022/10/03 12:58:37;;;;;;;5.45;1.50;;;;;;;18.00;56.76;102625.56;5053445;28;20108;-59
2022/10/03 13:01:38;;;;;;;5.90;1.65;;;;;;;17.96;56.34;102621.56;5063410;28;20037;-58
2022/10/03 13:04:40;;;;;;;7.15;1.50;;;;;;;17.98;55.80;102628.63;5056664;28;20468;-59